createdAt,value
2023-05-05T00:02:44.845Z,59.61
2023-05-05T00:05:50.427Z,59.96
2023-05-05T00:08:52.207Z,60.00
2023-05-05T00:11:54.021Z,60.13
2023-05-05T00:14:55.878Z,60.13
2023-05-05T00:17:57.785Z,60.11
2023-05-05T00:20:59.744Z,60.48
2023-05-05T00:24:05.002Z,60.65
2023-05-05T00:27:06.813Z,60.83
2023-05-05T00:30:09.135Z,60.93
2023-05-05T00:33:11.381Z,61.13
2023-05-05T00:36:13.805Z,61.00
2023-05-05T00:39:16.574Z,60.92
2023-05-05T00:42:19.177Z,61.22
2023-05-05T00:45:21.057Z,61.28
2023-05-05T00:48:25.549Z,61.23
2023-05-05T00:51:28.427Z,61.06
2023-05-05T00:54:30.490Z,61.13
2023-05-05T00:57:33.799Z,60.91
2023-05-05T01:00:35.956Z,60.75
2023-05-05T01:03:39.473Z,60.75
2023-05-05T01:07:08.415Z,60.87
2023-05-05T01:10:20.463Z,60.99
2023-05-05T01:13:54.477Z,61.18
2023-05-05T01:17:00.084Z,61.04
2023-05-05T01:20:26.409Z,61.16
2023-05-05T01:24:02.333Z,61.42
2023-05-05T01:27:43.315Z,61.59
2023-05-05T01:31:22.758Z,61.58
2023-05-05T01:34:29.042Z,61.58
2023-05-05T01:38:17.399Z,62.44
2023-05-05T01:41:39.621Z,63.01
2023-05-05T01:44:44.948Z,63.09
2023-05-05T01:47:47.742Z,62.82
2023-05-05T01:50:52.296Z,62.72
2023-05-05T01:53:57.759Z,62.65
2023-05-05T01:57:02.182Z,62.37
2023-05-05T02:00:04.862Z,62.24
2023-05-05T02:03:18.726Z,61.93
2023-05-05T02:06:22.944Z,62.13
2023-05-05T02:09:29.487Z,61.99
2023-05-05T02:12:32.370Z,61.87
2023-05-05T02:15:36.027Z,61.68
2023-05-05T02:18:38.964Z,61.49
2023-05-05T02:21:41.875Z,61.85
2023-05-05T02:24:44.570Z,61.97
2023-05-05T02:27:48.172Z,62.02
2023-05-05T02:31:00.674Z,62.57
2023-05-05T02:34:05.343Z,62.83
2023-05-05T02:37:12.844Z,62.85
2023-05-05T02:40:23.812Z,63.12
2023-05-05T02:43:31.268Z,62.94
2023-05-05T02:46:33.466Z,62.49
2023-05-05T02:49:35.396Z,62.90
2023-05-05T02:52:37.660Z,63.15
2023-05-05T02:56:01.149Z,63.36
2023-05-05T02:59:16.574Z,63.50
2023-05-05T03:02:27.819Z,63.47
2023-05-05T03:05:38.729Z,63.54
2023-05-05T03:08:56.233Z,63.82
2023-05-05T03:12:05.702Z,64.02
2023-05-05T03:15:16.789Z,63.91
2023-05-05T03:18:20.457Z,64.27
2023-05-05T03:21:29.446Z,64.27
2023-05-05T03:24:31.352Z,63.94
2023-05-05T03:27:39.060Z,64.00
2023-05-05T03:30:42.109Z,64.30
2023-05-05T03:33:44.906Z,64.40
2023-05-05T03:36:46.778Z,64.41
2023-05-05T03:39:50.548Z,64.47
2023-05-05T03:42:52.762Z,64.44
2023-05-05T03:45:54.949Z,64.50
2023-05-05T03:48:57.400Z,64.45
2023-05-05T03:52:00.773Z,64.62
2023-05-05T03:55:03.272Z,64.72
2023-05-05T03:58:05.243Z,65.00
2023-05-05T04:01:07.252Z,64.92
2023-05-05T04:04:09.669Z,65.16
2023-05-05T04:07:11.694Z,64.68
2023-05-05T04:10:13.506Z,64.67
2023-05-05T04:13:15.520Z,64.69
2023-05-05T04:16:17.412Z,64.25
2023-05-05T04:19:19.244Z,64.18
2023-05-05T04:22:21.486Z,64.46
2023-05-05T04:25:23.888Z,63.79
2023-05-05T04:28:25.828Z,63.86
2023-05-05T04:31:27.788Z,63.41
2023-05-05T04:34:29.715Z,63.40
2023-05-05T04:37:31.569Z,63.55
2023-05-05T04:40:38.165Z,63.44
2023-05-05T04:43:41.046Z,63.76
2023-05-05T04:46:42.869Z,63.33
2023-05-05T04:49:45.174Z,63.34
2023-05-05T04:52:46.959Z,63.09
2023-05-05T04:55:48.819Z,62.64
2023-05-05T04:58:50.909Z,62.58
2023-05-05T05:01:52.720Z,62.55
2023-05-05T05:04:54.559Z,61.79
2023-05-05T05:07:56.329Z,60.64
2023-05-05T05:10:59.632Z,59.01
2023-05-05T05:14:01.472Z,57.89
2023-05-05T05:17:04.819Z,56.31
2023-05-05T05:20:08.234Z,55.24
2023-05-05T05:23:10.909Z,54.17
2023-05-05T05:26:17.654Z,53.03
2023-05-05T05:29:20.489Z,51.95
2023-05-05T05:32:23.159Z,51.40
2023-05-05T05:35:25.012Z,50.24
2023-05-05T05:38:26.797Z,49.69
2023-05-05T05:41:31.884Z,49.13
2023-05-05T05:44:33.871Z,48.07
2023-05-05T05:47:36.590Z,48.19
2023-05-05T05:50:38.388Z,47.73
2023-05-05T05:53:40.556Z,47.40
2023-05-05T05:56:43.508Z,47.39
2023-05-05T05:59:46.383Z,47.36
2023-05-05T06:02:48.466Z,46.80
2023-05-05T06:05:53.624Z,45.59
2023-05-05T06:08:55.816Z,45.14
2023-05-05T06:11:57.729Z,45.09
2023-05-05T06:14:59.658Z,45.25
2023-05-05T06:18:01.653Z,45.06
2023-05-05T06:21:03.436Z,44.22
2023-05-05T06:24:06.341Z,43.40
2023-05-05T06:27:09.859Z,42.91
2023-05-05T06:30:12.198Z,42.56
2023-05-05T06:33:13.959Z,42.85
2023-05-05T06:36:15.827Z,42.77
2023-05-05T06:39:17.688Z,42.17
2023-05-05T06:42:19.396Z,41.71
2023-05-05T06:45:21.789Z,40.92
2023-05-05T06:48:23.736Z,40.64
2023-05-05T06:51:27.672Z,40.61
2023-05-05T06:54:29.430Z,40.75
2023-05-05T06:57:31.331Z,40.66
2023-05-05T07:00:34.109Z,40.07
2023-05-05T07:03:35.908Z,40.04
2023-05-05T07:06:37.696Z,39.77
2023-05-05T07:09:41.293Z,40.19
2023-05-05T07:12:43.069Z,40.52
2023-05-05T07:15:47.744Z,39.93
2023-05-05T07:18:49.557Z,39.76
2023-05-05T07:21:52.160Z,40.13
2023-05-05T07:24:53.961Z,39.74
2023-05-05T07:27:56.482Z,40.01
2023-05-05T07:30:58.337Z,40.37
2023-05-05T07:34:00.150Z,40.52
2023-05-05T07:37:02.031Z,39.74
2023-05-05T07:40:04.138Z,39.07
2023-05-05T07:43:05.987Z,38.74
2023-05-05T07:46:08.561Z,38.37
2023-05-05T07:49:10.439Z,38.54
2023-05-05T07:52:12.345Z,39.04
2023-05-05T07:55:14.073Z,39.60
2023-05-05T07:58:16.385Z,39.01
2023-05-05T08:01:18.447Z,37.73
2023-05-05T08:04:20.320Z,37.27
2023-05-05T08:07:22.086Z,36.94
2023-05-05T08:10:23.904Z,36.09
2023-05-05T08:13:25.760Z,35.79
2023-05-05T08:16:27.766Z,35.33
2023-05-05T08:19:29.823Z,35.17
2023-05-05T08:22:32.733Z,35.01
2023-05-05T08:25:34.453Z,34.69
2023-05-05T08:28:36.959Z,34.61
2023-05-05T08:31:38.817Z,34.72
2023-05-05T08:34:40.658Z,34.16
2023-05-05T08:37:42.535Z,34.31
2023-05-05T08:40:44.905Z,33.82
2023-05-05T08:43:48.226Z,34.03
2023-05-05T08:46:50.718Z,33.50
2023-05-05T08:49:55.749Z,33.11
2023-05-05T08:53:18.133Z,33.25
2023-05-05T08:56:24.233Z,33.67
2023-05-05T08:59:30.178Z,34.07
2023-05-05T09:02:32.994Z,33.62
2023-05-05T09:05:36.033Z,33.75
2023-05-05T09:08:38.602Z,33.39
2023-05-05T09:11:41.758Z,33.66
2023-05-05T09:14:43.438Z,33.01
2023-05-05T09:17:45.231Z,32.83
2023-05-05T09:20:47.045Z,32.72
2023-05-05T09:24:11.224Z,32.26
2023-05-05T09:27:23.194Z,32.28
2023-05-05T09:30:26.108Z,32.27
2023-05-05T09:33:31.570Z,31.81
2023-05-05T09:36:50.264Z,32.14
2023-05-05T09:39:55.812Z,32.19
2023-05-05T09:43:02.772Z,32.41
2023-05-05T09:46:08.555Z,32.64
2023-05-05T09:49:15.588Z,33.74
2023-05-05T09:52:17.832Z,34.20
2023-05-05T09:55:19.767Z,34.61
2023-05-05T09:58:24.048Z,35.23
2023-05-05T10:01:28.914Z,35.62
2023-05-05T10:04:31.540Z,35.57
2023-05-05T10:07:34.123Z,34.75
2023-05-05T10:10:36.381Z,33.58
2023-05-05T10:13:42.184Z,33.41
2023-05-05T10:16:51.011Z,33.19
2023-05-05T10:19:57.415Z,33.77
2023-05-05T10:23:02.770Z,34.63
2023-05-05T10:26:07.732Z,35.03
2023-05-05T10:29:55.036Z,35.50
2023-05-05T10:36:29.246Z,35.89
2023-05-05T10:39:32.042Z,35.40
2023-05-05T10:42:33.805Z,35.84
2023-05-05T10:45:37.655Z,34.55
2023-05-05T10:48:51.404Z,33.96
2023-05-05T10:52:00.476Z,32.98
2023-05-05T10:55:05.003Z,33.82
2023-05-05T10:58:06.736Z,33.82
2023-05-05T11:01:09.445Z,34.54
2023-05-05T11:04:18.818Z,35.16
2023-05-05T11:07:23.986Z,35.47
2023-05-05T11:10:26.441Z,34.98
2023-05-05T11:13:28.713Z,34.23
2023-05-05T11:16:45.664Z,34.16
2023-05-05T11:19:48.257Z,34.17
2023-05-05T11:23:05.364Z,34.37
2023-05-05T11:26:07.343Z,34.60
2023-05-05T11:29:09.296Z,34.19
2023-05-05T11:32:13.141Z,33.90
2023-05-05T11:35:15.558Z,33.53
2023-05-05T11:38:21.128Z,33.54
2023-05-05T11:41:34.934Z,34.40
2023-05-05T11:44:36.823Z,34.65
2023-05-05T11:47:39.085Z,34.75
2023-05-05T11:50:40.992Z,34.54
2023-05-05T11:53:46.565Z,34.35
2023-05-05T11:56:53.694Z,34.20
2023-05-05T12:00:03.109Z,34.52
2023-05-05T12:03:07.142Z,34.38
2023-05-05T12:06:09.194Z,34.88
2023-05-05T12:09:19.918Z,34.71
2023-05-05T12:12:35.042Z,34.88
2023-05-05T12:15:37.431Z,34.53
2023-05-05T12:18:40.432Z,33.75
2023-05-05T12:21:45.668Z,34.00
2023-05-05T12:25:02.899Z,33.64
2023-05-05T12:28:06.629Z,33.63
2023-05-05T12:31:09.425Z,33.03
2023-05-05T12:34:12.271Z,32.78
2023-05-05T12:37:16.415Z,33.00
2023-05-05T12:40:51.937Z,32.74
2023-05-05T12:43:58.395Z,32.80
2023-05-05T12:47:00.127Z,32.77
2023-05-05T12:50:03.375Z,32.96
2023-05-05T12:53:05.121Z,32.72
2023-05-05T12:56:06.973Z,33.08
2023-05-05T12:59:21.382Z,32.74
2023-05-05T13:02:34.634Z,32.15
2023-05-05T13:05:36.714Z,32.69
2023-05-05T13:08:44.782Z,32.54
2023-05-05T13:11:46.597Z,32.57
2023-05-05T13:14:48.635Z,31.82
2023-05-05T13:17:50.414Z,31.57
2023-05-05T13:20:52.258Z,31.88
2023-05-05T13:23:54.827Z,32.35
2023-05-05T13:26:59.156Z,32.28
2023-05-05T13:30:01.285Z,32.71
2023-05-05T13:33:06.077Z,32.93
2023-05-05T13:36:08.209Z,32.54
2023-05-05T13:39:10.137Z,32.72
2023-05-05T13:42:11.932Z,32.48
2023-05-05T13:45:14.350Z,32.56
2023-05-05T13:48:16.380Z,32.62
2023-05-05T13:51:18.108Z,32.13
2023-05-05T13:54:20.458Z,32.43
2023-05-05T13:57:22.406Z,32.63
2023-05-05T14:00:24.352Z,32.61
2023-05-05T14:03:26.208Z,32.19
2023-05-05T14:06:28.145Z,32.01
2023-05-05T14:09:29.950Z,32.08
2023-05-05T14:12:32.360Z,32.13
2023-05-05T14:15:35.009Z,31.97
2023-05-05T14:18:36.727Z,31.74
2023-05-05T14:21:38.489Z,31.96
2023-05-05T14:24:40.220Z,32.05
2023-05-05T14:27:42.014Z,31.88
2023-05-05T14:30:43.827Z,31.79
2023-05-05T14:33:46.076Z,32.11
2023-05-05T14:36:47.849Z,32.49
2023-05-05T14:39:49.667Z,32.35
2023-05-05T14:42:51.564Z,32.48
2023-05-05T14:45:53.450Z,32.69
2023-05-05T14:48:55.479Z,32.74
2023-05-05T14:51:57.254Z,32.77
2023-05-05T14:54:59.172Z,32.80
2023-05-05T14:58:00.937Z,32.65
2023-05-05T15:01:02.737Z,33.04
2023-05-05T15:04:04.953Z,32.61
2023-05-05T15:07:06.968Z,32.79
2023-05-05T15:10:12.105Z,33.12
2023-05-05T15:13:13.945Z,32.61
2023-05-05T15:16:16.384Z,32.71
2023-05-05T15:19:18.059Z,32.66
2023-05-05T15:22:19.767Z,32.61
2023-05-05T15:25:21.763Z,32.85
2023-05-05T15:28:26.701Z,33.08
2023-05-05T15:31:28.413Z,32.95
2023-05-05T15:34:30.286Z,32.86
2023-05-05T15:37:32.348Z,33.06
2023-05-05T15:40:36.087Z,33.10
2023-05-05T15:43:37.807Z,33.39
2023-05-05T15:46:40.952Z,33.49
2023-05-05T15:49:42.777Z,33.31
2023-05-05T15:52:44.625Z,33.20
2023-05-05T15:55:46.871Z,33.41
2023-05-05T15:58:48.594Z,33.17
2023-05-05T16:01:50.263Z,33.30
2023-05-05T16:04:52.301Z,32.87
2023-05-05T16:07:54.156Z,33.01
2023-05-05T16:10:57.357Z,33.28
2023-05-05T16:13:59.202Z,33.60
2023-05-05T16:17:03.612Z,33.57
2023-05-05T16:20:06.629Z,32.87
2023-05-05T16:23:08.808Z,33.00
2023-05-05T16:26:10.543Z,33.04
2023-05-05T16:29:13.445Z,33.57
2023-05-05T16:32:15.127Z,33.74
2023-05-05T16:35:17.080Z,33.50
2023-05-05T16:38:18.794Z,33.66
2023-05-05T16:41:21.278Z,33.82
2023-05-05T16:44:23.055Z,33.59
2023-05-05T16:47:25.245Z,33.94
2023-05-05T16:50:27.051Z,33.98
2023-05-05T16:53:28.792Z,34.16
2023-05-05T16:56:30.565Z,34.15
2023-05-05T16:59:32.334Z,34.42
2023-05-05T17:02:35.369Z,34.35
2023-05-05T17:05:37.325Z,34.37
2023-05-05T17:08:39.223Z,34.40
2023-05-05T17:11:40.918Z,34.41
2023-05-05T17:14:42.973Z,35.06
2023-05-05T17:17:44.788Z,35.27
2023-05-05T17:20:46.556Z,35.55
2023-05-05T17:23:48.272Z,35.93
2023-05-05T17:26:50.595Z,36.67
2023-05-05T17:29:52.787Z,37.38
2023-05-05T17:32:54.797Z,38.32
2023-05-05T17:35:56.627Z,38.36
2023-05-05T17:38:58.477Z,38.92
2023-05-05T17:42:00.153Z,39.31
2023-05-05T17:45:05.331Z,39.81
2023-05-05T17:48:07.598Z,40.32
2023-05-05T17:51:09.332Z,40.67
2023-05-05T17:54:11.190Z,40.82
2023-05-05T17:57:13.342Z,41.23
2023-05-05T18:00:15.452Z,41.76
2023-05-05T18:03:17.555Z,41.88
2023-05-05T18:06:19.379Z,42.45
2023-05-05T18:09:21.334Z,42.50
2023-05-05T18:12:23.101Z,42.70
2023-05-05T18:15:25.046Z,43.15
2023-05-05T18:18:26.879Z,43.52
2023-05-05T18:21:29.536Z,43.85
2023-05-05T18:24:31.878Z,44.18
2023-05-05T18:27:34.356Z,44.95
2023-05-05T18:30:36.209Z,45.08
2023-05-05T18:33:38.012Z,45.62
2023-05-05T18:36:39.712Z,45.64
2023-05-05T18:39:43.798Z,45.33
2023-05-05T18:42:45.792Z,45.26
2023-05-05T18:45:47.566Z,45.42
2023-05-05T18:48:49.348Z,45.63
2023-05-05T18:51:51.133Z,45.65
2023-05-05T18:54:53.214Z,46.03
2023-05-05T18:57:55.081Z,45.82
2023-05-05T19:00:57.905Z,46.23
2023-05-05T19:03:59.837Z,46.43
2023-05-05T19:07:01.609Z,46.90
2023-05-05T19:10:07.226Z,46.90
2023-05-05T19:13:11.298Z,47.04
2023-05-05T19:16:13.112Z,47.39
2023-05-05T19:19:14.982Z,47.79
2023-05-05T19:22:20.981Z,48.10
2023-05-05T19:25:22.825Z,48.11
2023-05-05T19:28:24.588Z,48.57
2023-05-05T19:31:30.883Z,48.57
2023-05-05T19:34:33.136Z,48.12
2023-05-05T19:37:34.870Z,48.18
2023-05-05T19:40:40.089Z,48.34
2023-05-05T19:43:41.967Z,48.32
2023-05-05T19:46:43.803Z,48.79
2023-05-05T19:49:45.683Z,49.33
2023-05-05T19:52:47.425Z,49.38
2023-05-05T19:55:49.270Z,49.72
2023-05-05T19:58:57.805Z,50.13
2023-05-05T20:01:59.650Z,50.23
2023-05-05T20:05:01.545Z,50.24
2023-05-05T20:08:03.351Z,50.31
2023-05-05T20:11:05.135Z,50.86
2023-05-05T20:14:11.742Z,50.34
2023-05-05T20:17:13.536Z,50.83
2023-05-05T20:20:18.711Z,51.27
2023-05-05T20:23:20.427Z,51.43
2023-05-05T20:26:24.680Z,51.51
2023-05-05T20:29:26.910Z,51.42
2023-05-05T20:32:29.617Z,51.93
2023-05-05T20:35:31.340Z,51.96
2023-05-05T20:38:34.207Z,52.52
2023-05-05T20:41:38.032Z,52.67
2023-05-05T20:44:40.165Z,52.71
2023-05-05T20:47:41.989Z,52.88
2023-05-05T20:50:43.707Z,53.27
2023-05-05T20:53:46.274Z,53.31
2023-05-05T20:56:47.985Z,53.58
2023-05-05T20:59:49.789Z,53.77
2023-05-05T21:02:51.660Z,53.89
2023-05-05T21:05:54.249Z,54.07
2023-05-05T21:08:56.156Z,54.54
2023-05-05T21:11:57.922Z,54.65
2023-05-05T21:14:59.752Z,54.58
2023-05-05T21:18:01.613Z,54.93
2023-05-05T21:21:03.448Z,55.42
2023-05-05T21:24:07.744Z,55.68
2023-05-05T21:27:10.352Z,55.86
2023-05-05T21:30:12.734Z,56.02
2023-05-05T21:33:14.888Z,56.35
2023-05-05T21:36:19.576Z,56.42
2023-05-05T21:39:21.371Z,56.91
2023-05-05T21:42:24.359Z,56.74
2023-05-05T21:45:26.147Z,56.69
2023-05-05T21:48:28.239Z,56.61
2023-05-05T21:51:30.093Z,56.93
2023-05-05T21:54:31.827Z,56.84
2023-05-05T21:57:33.738Z,57.07
2023-05-05T22:00:35.635Z,56.91
2023-05-05T22:03:37.498Z,57.30
2023-05-05T22:06:39.253Z,57.52
2023-05-05T22:09:40.972Z,57.83
2023-05-05T22:12:42.765Z,58.02
2023-05-05T22:15:47.266Z,58.09
2023-05-05T22:18:49.882Z,58.12
2023-05-05T22:21:53.328Z,58.00
2023-05-05T22:24:55.373Z,58.29
2023-05-05T22:27:57.089Z,58.46
2023-05-05T22:30:58.933Z,58.41
2023-05-05T22:34:00.877Z,58.27
2023-05-05T22:37:02.584Z,58.55
2023-05-05T22:40:04.911Z,58.33
2023-05-05T22:43:06.616Z,58.52
2023-05-05T22:46:08.337Z,58.44
2023-05-05T22:49:10.374Z,59.16
2023-05-05T22:52:12.643Z,59.07
2023-05-05T22:55:15.095Z,59.37
2023-05-05T22:58:16.834Z,59.61
2023-05-05T23:01:18.656Z,59.73
2023-05-05T23:04:20.520Z,59.96
2023-05-05T23:07:22.345Z,60.06
2023-05-05T23:10:24.035Z,60.29
2023-05-05T23:13:25.844Z,60.41
2023-05-05T23:16:27.603Z,60.56
2023-05-05T23:19:32.092Z,60.52
2023-05-05T23:22:33.873Z,60.69
2023-05-05T23:25:35.906Z,60.77
2023-05-05T23:28:37.741Z,60.88
2023-05-05T23:31:39.453Z,60.75
2023-05-05T23:34:41.500Z,61.20
2023-05-05T23:37:43.201Z,61.01
2023-05-05T23:40:44.928Z,61.05
2023-05-05T23:43:46.864Z,61.08
2023-05-05T23:46:50.192Z,61.23
2023-05-05T23:49:53.289Z,61.15
2023-05-05T23:52:55.444Z,60.90
2023-05-05T23:55:57.269Z,61.51
2023-05-05T23:58:59.030Z,61.80
